Latest Weather Observations for Urandangi

IDQ60801

Issued at 1:02 pm EST Thursday 2 April 2015 (issued every 30 minutes, with the page automatically refreshed every 10 minutes)

About weather observations | Map of weather stations | Latest weather observations for QLD | Other Formats
Station Details ID: 037058 Name: URANDANGI AERODROME Lat: -21.60 Lon: 138.37 Height: 178.6 m
Data from the previous 72 hours. | See also: Recent months at Urandangi
Date/Time
EST
Temp
°C
App
Temp
°C
Dew
Point
Rel
Hum
%
Delta-T
°C
Wind Press
QNH
hPa
Press
MSL
hPa
Rain
since 9 am
mm
Dir
 
Spd
km/h
Gust
km/h
Spd
kts
Gust
kts
02/01:00pm 35.6 31.4 8.4 19 15.5 SE 20 39 11 21 1011.9 1011.1 0.0
02/12:30pm 36.3 32.7 9.8 20 15.5 ESE 19 26 10 14 1012.7 1011.8 0.0
02/12:00pm 35.6 32.6 9.2 20 15.2 E 15 30 8 16 1013.2 1012.3 0.0
02/11:30am 34.6 31.7 9.8 22 14.4 E 15 22 8 12 1013.6 1012.7 0.0
02/11:00am 34.4 31.1 9.6 22 14.3 E 17 28 9 15 1013.9 1013.0 0.0
02/10:30am 33.8 29.6 9.8 23 13.9 E 22 30 12 16 1014.0 1013.1 0.0
02/10:00am 32.9 28.5 10.3 25 13.1 E 24 32 13 17 1014.1 1013.2 0.0
02/09:30am 31.6 27.2 10.3 27 12.3 ENE 24 33 13 18 1014.0 1013.1 0.0
02/09:00am 30.9 26.5 10.3 28 11.8 ENE 24 32 13 17 1013.9 1013.0 0.0
02/08:30am 29.9 26.9 10.5 30 11.1 E 17 22 9 12 1013.8 1012.9 0.0
02/08:00am 27.4 26.0 9.7 33 9.9 E 7 13 4 7 1013.5 1012.6 0.0
02/07:30am 23.8 22.3 8.6 38 8.2 ESE 6 6 3 3 1013.3 1012.4 0.0
02/07:00am 22.9 21.3 8.6 40 7.7 SE 7 9 4 5 1012.9 1012.0 0.0
02/06:30am 23.2 21.1 8.1 38 8.0 ESE 9 9 5 5 1012.7 1011.8 0.0
02/06:00am 24.3 22.3 8.7 37 8.4 ESE 9 11 5 6 1012.3 1011.4 0.0
02/05:30am 26.0 24.1 8.9 34 9.4 ESE 9 13 5 7 1011.9 1011.1 0.0
02/05:00am 27.1 24.2 9.5 33 9.8 ESE 15 19 8 10 1011.5 1010.7 0.0
02/04:30am 27.4 24.5 9.7 33 9.9 ESE 15 20 8 11 1011.3 1010.5 0.0
02/04:00am 27.8 24.6 10.1 33 10.0 ESE 17 24 9 13 1011.1 1010.2 0.0
02/03:30am 27.7 24.5 10.0 33 10.0 ESE 17 20 9 11 1011.2 1010.4 0.0
02/03:00am 27.0 24.9 9.8 34 9.6 ESE 11 15 6 8 1011.3 1010.5 0.0
02/02:30am 26.9 24.7 9.3 33 9.8 ESE 11 13 6 7 1011.3 1010.5 0.0
02/02:00am 27.2 24.9 9.1 32 10.0 ESE 11 13 6 7 1011.5 1010.7 0.0
02/01:30am 27.4 25.0 8.8 31 10.3 ESE 11 15 6 8 1011.5 1010.7 0.0
02/01:00am 26.6 24.0 7.6 30 10.2 ESE 11 13 6 7 1011.8 1011.0 0.0
02/12:30am 27.0 24.3 7.5 29 10.5 SE 11 13 6 7 1012.1 1011.2 0.0
02/12:00am 27.1 24.7 7.0 28 10.7 SE 9 11 5 6 1012.2 1011.3 0.0
 
Date/Time
EST
Temp
°C
App
Temp
°C
Dew
Point
Rel
Hum
%
Delta-T
°C
Wind Press
QNH
hPa
Press
MSL
hPa
Rain
since 9 am
mm
Dir
 
Spd
km/h
Gust
km/h
Spd
kts
Gust
kts
01/11:30pm 28.6 25.9 7.2 26 11.6 SE 11 13 6 7 1012.2 1011.3 0.0
01/11:00pm 29.8 26.7 7.1 24 12.3 SE 13 15 7 8 1012.3 1011.4 0.0
01/10:30pm 30.6 27.1 7.1 23 12.8 SE 15 20 8 11 1012.2 1011.3 0.0
01/10:00pm 30.4 27.2 7.0 23 12.7 SE 13 17 7 9 1012.2 1011.3 0.0
01/09:30pm 30.0 27.1 6.6 23 12.6 SSE 11 13 6 7 1012.1 1011.2 0.0
01/09:00pm 31.4 28.6 7.1 22 13.3 SSE 11 15 6 8 1011.7 1010.9 0.0
01/08:30pm 31.4 28.6 7.1 22 13.3 SSE 11 13 6 7 1011.4 1010.6 0.0
01/08:00pm 32.1 29.5 7.7 22 13.5 SSE 11 13 6 7 1011.0 1010.1 0.0
01/07:30pm 32.4 30.1 7.3 21 13.8 SSE 9 11 5 6 1010.6 1009.7 0.0
01/07:00pm 33.7 31.3 6.9 19 14.8 SSE 9 13 5 7 1010.2 1009.3 0.0
01/06:30pm 35.7 32.1 6.9 17 16.0 SSE 15 20 8 11 1009.8 1008.9 0.0
01/06:00pm 36.3 33.6 7.4 17 16.3 SSE 11 17 6 9 1009.5 1008.6 0.0
01/05:30pm 36.4 34.1 7.4 17 16.3 SSE 9 15 5 8 1009.4 1008.5 0.0
01/05:00pm 36.9 33.5 7.8 17 16.6 SE 15 26 8 14 1009.3 1008.4 0.0
01/04:30pm 38.0 35.2 8.7 17 17.0 SE 13 20 7 11 1009.2 1008.3 0.0
01/04:00pm 37.9 35.7 7.7 16 17.2 WSW 9 17 5 9 1009.4 1008.5 0.0
01/03:30pm 37.9 35.9 8.6 17 16.9 S 9 17 5 9 1009.6 1008.7 0.0
01/03:00pm 37.2 35.6 8.1 17 16.7 WSW 6 13 3 7 1010.0 1009.1 0.0
01/02:30pm 35.9 34.5 10.9 22 14.8 NE 9 15 5 8 1010.3 1009.4 0.0
01/02:00pm 36.7 34.7 11.5 22 15.1 S 13 20 7 11 1010.9 1010.0 0.0
01/01:30pm 36.1 35.5 12.3 24 14.4 SE 7 13 4 7 1011.3 1010.5 0.0
01/01:00pm 35.7 35.2 12.6 25 14.0 ENE 7 17 4 9 1012.1 1011.2 0.0
01/12:30pm 35.2 34.9 13.4 27 13.4 SE 7 15 4 8 1012.7 1011.8 0.0
01/12:00pm 35.3 35.1 14.6 29 12.9 SE 9 15 5 8 1013.5 1012.6 0.0
01/11:30am 34.3 34.3 14.2 29 12.4 SSE 7 15 4 8 1014.1 1013.2 0.0
01/11:00am 34.0 34.3 14.5 31 12.1 ESE 6 15 3 8 1014.5 1013.6 0.0
01/10:30am 31.8 31.9 14.0 34 10.9 SSE 6 11 3 6 1014.8 1013.9 0.0
01/10:00am 30.8 30.2 13.6 35 10.4 ESE 9 15 5 8 1015.2 1014.3 0.0
01/09:30am 29.8 29.2 12.3 34 10.3 SSE 7 9 4 5 1015.3 1014.1 0.0
01/09:00am 27.8 27.1 11.4 36 9.5 SSE 6 9 3 5 1015.2 1014.0 0.0
01/08:30am 25.9 24.1 7.0 30 10.0 S 6 6 3 3 1015.0 1013.8 0.0
01/08:00am 23.7 21.3 4.1 28 9.7 SSW 6 6 3 3 1014.8 1013.6 0.0
01/07:30am 21.4 19.0 2.2 28 9.0 SSW 4 6 2 3 1014.6 1013.4 0.0
01/07:00am 20.6 17.7 1.5 28 8.8 SW 6 6 3 3 1014.3 1013.1 0.0
01/06:30am 20.8 17.9 1.6 28 8.9 S 6 7 3 4 1014.1 1012.9 0.0
01/06:00am 21.0 18.5 1.8 28 8.9 SSE 4 4 2 2 1013.8 1012.6 0.0
01/05:30am 21.0 18.4 0.8 26 9.2 SSE 4 4 2 2 1013.6 1012.4 0.0
01/05:00am 21.7 19.6 1.4 26 9.4 SSE 2 4 1 2 1013.4 1012.2 0.0
01/04:30am 21.9 19.4 1.6 26 9.5 SSE 4 6 2 3 1013.2 1012.0 0.0
01/04:00am 21.9 19.0 1.6 26 9.5 SSE 6 6 3 3 1013.1 1011.9 0.0
01/03:30am 21.9 18.5 1.6 26 9.5 SSE 9 9 5 5 1013.1 1011.9 0.0
01/03:00am 22.9 19.0 1.3 24 10.1 S 11 13 6 7 1013.3 1012.1 0.0
01/02:30am 23.8 20.2 0.8 22 10.7 SSE 9 11 5 6 1013.6 1012.4 0.0
01/02:00am 25.3 21.0 0.8 20 11.6 SE 13 17 7 9 1014.0 1012.8 0.0
01/01:30am 25.9 22.3 0.5 19 12.0 SSE 9 11 5 6 1014.1 1012.9 0.0
01/01:00am 27.1 23.1 0.8 18 12.6 S 11 17 6 9 1014.2 1013.0 0.0
01/12:30am 26.8 23.0 2.0 20 12.1 S 11 15 6 8 1014.4 1013.2 0.0
01/12:00am 27.4 23.3 2.5 20 12.3 S 13 19 7 10 1014.5 1013.3 0.0
 
Date/Time
EST
Temp
°C
App
Temp
°C
Dew
Point
Rel
Hum
%
Delta-T
°C
Wind Press
QNH
hPa
Press
MSL
hPa
Rain
since 9 am
mm
Dir
 
Spd
km/h
Gust
km/h
Spd
kts
Gust
kts
31/11:30pm 27.9 23.9 2.9 20 12.5 S 13 19 7 10 1014.5 1013.3 0.0
31/11:00pm 28.1 24.8 4.4 22 12.2 S 11 15 6 8 1014.6 1013.4 0.0
31/10:30pm 28.0 24.8 5.0 23 11.9 S 11 13 6 7 1014.7 1013.5 0.0
31/10:00pm 27.9 24.8 5.5 24 11.7 S 11 11 6 6 1014.6 1013.4 0.0
31/09:30pm 28.6 25.6 6.1 24 11.9 S 11 13 6 7 1014.5 1013.3 0.0
31/09:00pm 29.3 26.4 6.7 24 12.1 S 11 13 6 7 1014.2 1013.0 0.0
31/08:30pm 30.2 27.9 7.4 24 12.5 SSW 9 11 5 6 1013.9 1012.7 0.0
31/08:00pm 31.1 29.0 8.2 24 12.7 SSW 9 9 5 5 1013.4 1012.2 0.0
31/07:30pm 32.8 30.7 8.3 22 13.8 S 9 11 5 6 1012.9 1011.7 0.0
31/07:00pm 34.3 31.7 9.5 22 14.3 S 13 19 7 10 1012.5 1011.3 0.0
31/06:30pm 35.3 32.0 9.7 21 14.9 SSW 17 22 9 12 1012.2 1011.0 0.0
31/06:00pm 36.1 33.8 10.3 21 15.2 S 13 20 7 11 1011.9 1010.8 0.0
31/05:30pm 36.5 34.6 10.6 21 15.3 SSW 11 20 6 11 1011.8 1010.7 0.0
31/05:00pm 36.6 34.8 10.7 21 15.4 SSE 11 24 6 13 1011.8 1010.7 0.0
31/04:30pm 36.8 35.8 10.9 21 15.4 SE 7 15 4 8 1011.8 1010.7 0.0
31/04:00pm 37.3 35.6 11.3 21 15.6 ESE 11 20 6 11 1011.9 1010.8 0.0
31/03:30pm 37.2 35.1 11.2 21 15.6 ESE 13 22 7 12 1012.2 1011.0 0.0
31/03:00pm 36.3 34.2 11.2 22 15.0 SE 13 24 7 13 1012.5 1011.3 0.0
31/02:30pm 36.6 35.0 11.4 22 15.1 SSE 11 20 6 11 1012.9 1011.7 0.0
31/02:00pm 36.1 34.9 11.7 23 14.6 SSE 9 15 5 8 1013.7 1012.5 0.0
31/01:30pm 35.9 34.1 10.9 22 14.8 SSE 11 22 6 12 1014.2 1013.0 0.0
31/01:00pm 35.8 33.4 10.1 21 15.0 E 13 24 7 13 1014.7 1013.5 0.0
31/12:30pm 35.0 31.5 8.7 20 15.0 SE 17 24 9 13 1015.4 1014.3 0.0
31/12:00pm 34.5 30.7 9.0 21 14.6 SE 19 30 10 16 1016.0 1014.9 0.0
31/11:30am 33.4 29.0 6.6 19 14.7 SE 19 26 10 14 1016.3 1015.2 0.0
31/11:00am 32.5 27.8 5.9 19 14.3 SE 20 28 11 15 1016.8 1015.7 0.0
31/10:30am 31.3 26.4 4.9 19 13.9 SSE 20 30 11 16 1017.1 1016.0 0.0
31/10:00am 30.2 24.1 2.5 17 13.9 SE 24 32 13 17 1017.5 1016.4 0.0
31/09:30am 29.4 22.5 2.6 18 13.4 SE 28 37 15 20 1017.7 1016.6 0.0
31/09:00am 28.3 21.3 1.7 18 13.0 SSE 28 35 15 19 1017.7 1016.6 0.0
31/08:30am 27.3 22.1 2.4 20 12.3 SSE 19 28 10 15 1017.6 1016.5 0.0
31/08:00am 25.7 20.9 2.4 22 11.3 SSE 17 20 9 11 1017.5 1016.4 0.0
31/07:30am 25.5 20.9 1.6 21 11.5 SSE 15 20 8 11 1017.1 1016.0 0.0
31/07:00am 24.9 20.7 1.7 22 11.1 SSE 13 19 7 10 1016.7 1015.6 0.0
31/06:30am 25.4 20.4 1.5 21 11.4 SSE 17 24 9 13 1016.4 1015.3 0.0
31/06:00am 25.8 20.4 1.2 20 11.7 S 19 24 10 13 1016.0 1014.9 0.0
31/05:30am 25.8 20.4 1.2 20 11.7 SSE 19 24 10 13 1015.9 1014.8 0.0
31/05:00am 26.2 21.1 0.8 19 12.1 SSE 17 24 9 13 1015.7 1014.6 0.0
31/04:30am 26.5 21.4 1.0 19 12.2 SSE 17 22 9 12 1015.6 1014.5 0.0
31/04:00am 26.9 21.2 0.6 18 12.5 SSE 20 30 11 16 1015.4 1014.3 0.0
31/03:30am 27.6 21.6 1.2 18 12.8 SSE 22 30 12 16 1015.4 1014.3 0.0
31/03:00am 27.9 22.2 0.6 17 13.1 SSE 20 28 11 15 1015.7 1014.6 0.0
31/02:30am 28.4 22.4 1.0 17 13.3 SSE 22 33 12 18 1015.7 1014.6 0.0
31/02:00am 28.9 23.3 1.4 17 13.4 SSE 20 32 11 17 1015.9 1014.8 0.0
31/01:30am 29.1 23.8 1.6 17 13.5 SSE 19 26 10 14 1016.1 1015.0 0.0
31/01:00am 29.6 24.3 2.8 18 13.5 SSE 20 26 11 14 1016.2 1015.1 0.0
31/12:30am 29.5 24.9 3.5 19 13.3 SSE 17 24 9 13 1016.4 1015.3 0.0
31/12:00am 30.1 25.2 4.0 19 13.4 SSE 19 24 10 13 1016.5 1015.4 0.0
 
Date/Time
EST
Temp
°C
App
Temp
°C
Dew
Point
Rel
Hum
%
Delta-T
°C
Wind Press
QNH
hPa
Press
MSL
hPa
Rain
since 9 am
mm
Dir
 
Spd
km/h
Gust
km/h
Spd
kts
Gust
kts
30/11:30pm 30.8 25.8 4.5 19 13.7 SSE 20 28 11 15 1016.5 1015.4 0.0
30/11:00pm 31.2 26.4 5.6 20 13.6 SSE 20 28 11 15 1016.7 1015.6 0.0
30/10:30pm 31.7 27.3 7.4 22 13.4 SSE 20 26 11 14 1016.6 1015.5 0.0
30/10:00pm 31.8 28.6 9.9 26 12.5 S 17 24 9 13 1016.6 1015.5 0.0
30/09:30pm 31.0 29.5 11.9 31 11.3 S 11 13 6 7 1016.2 1015.1 0.0
30/09:00pm 30.6 29.3 11.1 30 11.3 SSE 9 11 5 6 1015.9 1014.8 0.0
30/08:30pm 32.4 30.8 11.6 28 12.3 SSE 11 15 6 8 1015.7 1014.6 0.0
30/08:00pm 33.0 31.4 11.5 27 12.7 SSE 11 15 6 8 1015.5 1014.4 0.0
30/07:30pm 33.8 31.7 11.0 25 13.4 SSE 13 19 7 10 1015.2 1014.0 0.0
30/07:00pm 34.6 31.7 11.1 24 13.9 SSE 17 26 9 14 1014.8 1013.6 0.0
30/06:30pm 35.5 33.0 11.2 23 14.4 SSE 15 20 8 11 1014.5 1013.3 0.0
30/06:00pm 36.2 33.0 11.1 22 14.9 SSE 19 24 10 13 1014.4 1013.2 0.0
30/05:30pm 37.0 33.8 11.1 21 15.5 SSE 19 32 10 17 1014.1 1012.9 0.0
30/05:00pm 37.0 34.1 11.1 21 15.5 SSE 17 24 9 13 1014.0 1012.8 0.0
30/04:30pm 37.1 34.0 10.4 20 15.8 SSE 17 30 9 16 1014.0 1012.8 0.0
30/04:00pm 37.3 33.5 9.8 19 16.1 S 20 32 11 17 1014.1 1012.9 0.0
30/03:30pm 37.0 33.9 10.3 20 15.8 SSE 17 30 9 16 1014.3 1013.1 0.0
30/03:00pm 37.1 33.2 9.6 19 16.1 S 20 32 11 17 1014.4 1013.2 0.0
30/02:30pm 36.6 33.4 10.0 20 15.6 SSE 17 24 9 13 1014.7 1013.5 0.0
30/02:00pm 36.1 33.4 8.8 19 15.7 SSE 13 24 7 13 1015.1 1013.9 0.0
30/01:30pm 35.8 31.9 8.6 19 15.6 SSE 19 32 10 17 1015.5 1014.4 0.0

Other Formats:

Comma delimited format used in spreadsheet applications
http://www.bom.gov.au/fwo/IDQ60801/IDQ60801.94344.axf

JavaScript Object Notation format (JSON) in row-major order
http://www.bom.gov.au/fwo/IDQ60801/IDQ60801.94344.json